This is the latest recevied weather packets stored in our database for station/object KI5NXU. If no packets are shown the sender has not sent any weather packets the latest 10 day(s).
| Time | Temp. | Humidity | Pressure | Rain* | Wind** | Luminosity | Snow |
|---|---|---|---|---|---|---|---|
| 1777766755 | 25° C | 40% | 1018.1 hPa | 0 mm | - | 93 W/m² | - |
| 1777766452 | 25.56° C | 39% | 1018 hPa | 0 mm | - | 108 W/m² | - |
| 1777766148 | 25.56° C | 38% | 1018.2 hPa | 0 mm | - | 117 W/m² | - |
| 1777765847 | 26.11° C | 36% | 1018 hPa | 0 mm | - | 138 W/m² | - |
| 1777765542 | 26.11° C | 35% | 1018 hPa | 0 mm | - | 149 W/m² | - |
| 1777765240 | 25.56° C | 38% | 1018.1 hPa | 0 mm | - | 158 W/m² | - |
| 1777764940 | 25.56° C | 37% | 1018.1 hPa | 0 mm | - | 178 W/m² | - |
| 1777764638 | 25° C | 35% | 1018.2 hPa | 0 mm | - | 178 W/m² | - |
| 1777764333 | 25° C | 36% | 1018.3 hPa | 0 mm | - | 61 W/m² | - |
| 1777764031 | 25° C | 36% | 1018.1 hPa | 0 mm | - | 66 W/m² | - |
| 1777763728 | 26.11° C | 37% | 1018.1 hPa | 0 mm | - | 243 W/m² | - |
| 1777763426 | 25° C | 36% | 1018.3 hPa | 0 mm | - | 259 W/m² | - |
| 1777763124 | 25.56° C | 35% | 1018.2 hPa | 0 mm | - | 273 W/m² | - |
| 1777762822 | 25° C | 36% | 1018.2 hPa | 0 mm | - | 95 W/m² | - |
| 1777762517 | 25.56° C | 37% | 1018.1 hPa | 0 mm | - | 311 W/m² | - |
| 1777762214 | 25° C | 36% | 1018.1 hPa | 0 mm | - | 327 W/m² | - |
| 1777761910 | 25.56° C | 38% | 1018.1 hPa | 0 mm | - | 342 W/m² | - |
| 1777761608 | 25° C | 37% | 1018.1 hPa | 0 mm | - | 366 W/m² | - |
| 1777761305 | 25° C | 38% | 1018.2 hPa | 0 mm | - | 82 W/m² | - |
| 1777761003 | 25° C | 38% | 1018.1 hPa | 0 mm | - | 404 W/m² | - |
| 1777760700 | 24.44° C | 39% | 1018.4 hPa | 0 mm | - | 411 W/m² | - |
| 1777760396 | 25° C | 39% | 1018.3 hPa | 0 mm | - | 400 W/m² | - |
| 1777760092 | 25° C | 38% | 1018.2 hPa | 0 mm | - | 409 W/m² | - |
| 1777759790 | 24.44° C | 39% | 1018.4 hPa | 0 mm | - | 447 W/m² | - |
| 1777759485 | 23.89° C | 39% | 1018.5 hPa | 0 mm | - | 463 W/m² | - |
* Rain latest hour (hover to see other rain measurements)
** Current wind speed in m/s (hover to see current wind gust speed)